createdAt,value
2023-04-06T00:00:03.909Z,75.90
2023-04-06T00:02:32.058Z,76.30
2023-04-06T00:05:00.381Z,75.90
2023-04-06T00:07:29.254Z,76.10
2023-04-06T00:09:57.406Z,76.00
2023-04-06T00:12:26.946Z,76.40
2023-04-06T00:14:55.041Z,75.90
2023-04-06T00:17:23.146Z,76.00
2023-04-06T00:19:51.308Z,76.10
2023-04-06T00:22:19.539Z,76.30
2023-04-06T00:24:47.617Z,76.30
2023-04-06T00:27:15.743Z,76.70
2023-04-06T00:29:46.399Z,76.60
2023-04-06T00:32:14.554Z,76.60
2023-04-06T00:34:42.743Z,76.90
2023-04-06T00:37:11.106Z,77.20
2023-04-06T00:39:39.192Z,76.70
2023-04-06T00:42:12.670Z,77.40
2023-04-06T00:44:41.010Z,77.30
2023-04-06T00:47:10.742Z,77.00
2023-04-06T00:49:38.882Z,77.10
2023-04-06T00:52:06.979Z,77.40
2023-04-06T00:54:35.270Z,77.40
2023-04-06T00:57:03.395Z,77.10
2023-04-06T00:59:31.697Z,77.30
2023-04-06T01:02:00.170Z,77.20
2023-04-06T01:04:29.749Z,77.70
2023-04-06T01:06:57.856Z,77.70
2023-04-06T01:09:26.177Z,77.80
2023-04-06T01:11:54.338Z,77.80
2023-04-06T01:14:23.099Z,78.00
2023-04-06T01:16:51.325Z,77.80
2023-04-06T01:19:19.536Z,77.80
2023-04-06T01:21:50.366Z,78.10
2023-04-06T01:24:20.146Z,78.10
2023-04-06T01:26:48.361Z,78.10
2023-04-06T01:29:16.597Z,78.10
2023-04-06T01:31:44.888Z,78.10
2023-04-06T01:34:13.048Z,78.40
2023-04-06T01:36:41.212Z,78.40
2023-04-06T01:39:09.665Z,78.30
2023-04-06T01:41:39.357Z,78.50
2023-04-06T01:44:07.664Z,78.80
2023-04-06T01:46:35.912Z,78.80
2023-04-06T01:49:04.180Z,79.00
2023-04-06T01:51:32.417Z,78.90
2023-04-06T01:54:00.567Z,79.00
2023-04-06T01:56:28.703Z,79.10
2023-04-06T01:58:58.395Z,79.30
2023-04-06T02:01:26.647Z,79.30
2023-04-06T02:03:55.012Z,79.70
2023-04-06T02:06:23.174Z,79.60
2023-04-06T02:08:51.292Z,79.70
2023-04-06T02:11:19.487Z,80.00
2023-04-06T02:13:47.569Z,80.00
2023-04-06T02:16:17.155Z,79.80
2023-04-06T02:18:45.382Z,80.00
2023-04-06T02:21:13.744Z,80.40
2023-04-06T02:23:42.159Z,80.50
2023-04-06T02:26:10.312Z,81.00
2023-04-06T02:28:38.618Z,81.20
2023-04-06T02:31:06.734Z,81.10
2023-04-06T02:33:36.305Z,81.70
2023-04-06T02:36:04.591Z,82.20
2023-04-06T02:38:32.701Z,83.00
2023-04-06T02:41:00.823Z,83.50
2023-04-06T02:43:29.981Z,83.70
2023-04-06T02:45:58.102Z,84.10
2023-04-06T02:48:26.413Z,84.90
2023-04-06T02:50:55.877Z,85.20
2023-04-06T02:53:23.982Z,85.40
2023-04-06T02:55:52.072Z,85.90
2023-04-06T02:58:20.158Z,85.90
2023-04-06T03:00:48.313Z,85.70
2023-04-06T03:03:16.465Z,85.60
2023-04-06T03:05:44.629Z,85.20
2023-04-06T03:08:14.104Z,85.10
2023-04-06T03:10:42.269Z,85.40
2023-04-06T03:13:10.568Z,85.90
2023-04-06T03:15:38.727Z,85.80
2023-04-06T03:18:06.961Z,85.90
2023-04-06T03:20:35.472Z,86.60
2023-04-06T03:23:03.598Z,86.50
2023-04-06T03:25:33.059Z,86.20
2023-04-06T03:28:01.158Z,86.40
2023-04-06T03:30:29.296Z,86.60
2023-04-06T03:32:57.428Z,86.70
2023-04-06T03:35:26.527Z,86.70
2023-04-06T03:40:52.394Z,86.90
2023-04-06T03:43:20.504Z,87.30
2023-04-06T03:45:48.619Z,87.80
2023-04-06T03:48:16.839Z,87.70
2023-04-06T03:50:44.983Z,87.90
2023-04-06T03:53:13.123Z,87.80
2023-04-06T03:55:41.359Z,88.10
2023-04-06T03:58:10.954Z,89.30
2023-04-06T04:00:39.384Z,89.00
2023-04-06T04:03:07.617Z,89.50
2023-04-06T04:05:35.808Z,89.50
2023-04-06T04:08:04.163Z,89.30
2023-04-06T04:10:32.288Z,89.30
2023-04-06T04:13:00.425Z,89.30
2023-04-06T04:15:30.020Z,89.30
2023-04-06T04:17:58.177Z,89.00
2023-04-06T04:20:26.464Z,88.70
2023-04-06T04:22:54.569Z,88.70
2023-04-06T04:25:22.756Z,88.50
2023-04-06T04:27:51.016Z,88.30
2023-04-06T04:30:19.364Z,88.20
2023-04-06T04:32:48.980Z,88.10
2023-04-06T04:35:17.324Z,88.10
2023-04-06T04:37:45.553Z,88.10
2023-04-06T04:40:14.303Z,88.00
2023-04-06T04:42:42.425Z,88.50
2023-04-06T04:45:11.380Z,88.60
2023-04-06T04:47:39.567Z,88.40
2023-04-06T04:50:10.031Z,88.50
2023-04-06T04:52:39.411Z,88.70
2023-04-06T04:55:08.092Z,88.60
2023-04-06T04:57:36.364Z,88.30
2023-04-06T05:00:05.207Z,88.20
2023-04-06T05:02:33.485Z,88.00
2023-04-06T05:05:01.617Z,88.10
2023-04-06T05:07:31.468Z,88.10
2023-04-06T05:09:59.612Z,88.20
2023-04-06T05:12:29.111Z,88.00
2023-04-06T05:14:57.361Z,88.30
2023-04-06T05:17:25.716Z,88.30
2023-04-06T05:19:53.908Z,88.60
2023-04-06T05:22:22.121Z,88.80
2023-04-06T05:24:51.672Z,88.90
2023-04-06T05:27:19.813Z,88.90
2023-04-06T05:29:48.051Z,88.80
2023-04-06T05:32:16.217Z,88.80
2023-04-06T05:34:44.496Z,88.90
2023-04-06T05:37:12.604Z,88.40
2023-04-06T05:39:40.747Z,88.20
2023-04-06T05:42:10.341Z,87.80
2023-04-06T05:44:39.873Z,87.60
2023-04-06T05:47:08.064Z,87.10
2023-04-06T05:49:36.442Z,87.10
2023-04-06T05:52:05.245Z,86.40
2023-04-06T05:54:33.387Z,86.70
2023-04-06T05:57:01.465Z,86.50
2023-04-06T05:59:31.693Z,85.30
2023-04-06T06:01:59.823Z,84.60
2023-04-06T06:04:30.227Z,84.40
2023-04-06T06:06:58.701Z,83.90
2023-04-06T06:09:27.148Z,83.50
2023-04-06T06:11:55.329Z,83.10
2023-04-06T06:14:23.840Z,83.10
2023-04-06T06:16:53.388Z,82.20
2023-04-06T06:19:21.620Z,81.30
2023-04-06T06:21:50.624Z,81.10
2023-04-06T06:24:18.796Z,80.20
2023-04-06T06:26:47.039Z,79.80
2023-04-06T06:29:15.701Z,78.90
2023-04-06T06:31:43.904Z,78.00
2023-04-06T06:34:14.177Z,77.40
2023-04-06T06:36:42.491Z,77.10
2023-04-06T06:39:11.022Z,77.10
2023-04-06T06:41:39.354Z,77.10
2023-04-06T06:44:07.854Z,78.00
2023-04-06T06:46:36.246Z,77.80
2023-04-06T06:49:04.703Z,77.30
2023-04-06T06:51:34.362Z,78.20
2023-04-06T06:54:02.546Z,75.60
2023-04-06T06:56:30.709Z,76.60
2023-04-06T06:58:59.136Z,76.20
2023-04-06T07:01:27.465Z,76.80
2023-04-06T07:03:55.786Z,75.40
2023-04-06T07:06:24.089Z,75.00
2023-04-06T07:08:53.673Z,72.70
2023-04-06T07:11:23.134Z,71.80
2023-04-06T07:13:51.265Z,72.10
2023-04-06T07:16:19.487Z,71.60
2023-04-06T07:18:47.753Z,67.50
2023-04-06T07:21:16.354Z,69.20
2023-04-06T07:23:44.731Z,68.90
2023-04-06T07:26:14.292Z,67.10
2023-04-06T07:28:42.660Z,67.50
2023-04-06T07:31:11.019Z,65.30
2023-04-06T07:33:39.321Z,68.90
2023-04-06T07:36:07.767Z,67.40
2023-04-06T07:38:36.467Z,65.80
2023-04-06T07:41:05.210Z,65.40
2023-04-06T07:43:34.938Z,67.20
2023-04-06T07:46:03.311Z,64.90
2023-04-06T07:48:31.587Z,65.00
2023-04-06T07:51:04.383Z,66.70
2023-04-06T07:53:33.106Z,66.00
2023-04-06T07:56:01.468Z,66.00
2023-04-06T07:58:29.866Z,64.60
2023-04-06T08:01:00.507Z,62.20
2023-04-06T08:03:28.990Z,63.80
2023-04-06T08:05:57.606Z,61.50
2023-04-06T08:08:25.845Z,60.30
2023-04-06T08:10:54.528Z,60.20
2023-04-06T08:13:22.733Z,59.60
2023-04-06T08:15:51.027Z,57.30
2023-04-06T08:18:20.787Z,59.40
2023-04-06T08:20:49.753Z,55.30
2023-04-06T08:23:18.117Z,54.80
2023-04-06T08:25:46.481Z,54.20
2023-04-06T08:28:14.703Z,52.70
2023-04-06T08:30:43.019Z,52.00
2023-04-06T08:33:11.891Z,50.60
2023-04-06T08:35:41.701Z,49.40
2023-04-06T08:38:09.947Z,49.40
2023-04-06T08:40:41.137Z,50.60
2023-04-06T08:43:14.982Z,47.40
2023-04-06T08:45:44.412Z,47.50
2023-04-06T08:48:14.448Z,48.50
2023-04-06T08:50:44.407Z,48.90
2023-04-06T08:53:14.196Z,49.40
2023-04-06T08:55:45.000Z,48.70
2023-04-06T08:58:15.721Z,49.90
2023-04-06T09:00:47.706Z,49.10
2023-04-06T09:03:17.150Z,47.10
2023-04-06T09:05:49.039Z,47.90
2023-04-06T09:08:17.422Z,45.80
2023-04-06T09:10:46.480Z,49.00
2023-04-06T09:13:14.733Z,47.40
2023-04-06T09:15:43.138Z,48.20
2023-04-06T09:18:11.355Z,48.90
2023-04-06T09:20:39.666Z,47.90
2023-04-06T09:23:19.394Z,48.90
2023-04-06T09:25:48.778Z,47.40
2023-04-06T09:28:17.063Z,48.80
2023-04-06T09:30:51.017Z,46.90
2023-04-06T09:33:24.896Z,47.00
2023-04-06T09:35:53.229Z,45.70
2023-04-06T09:38:22.880Z,46.70
2023-04-06T09:41:00.697Z,46.10
2023-04-06T09:43:30.183Z,46.90
2023-04-06T09:45:59.773Z,47.50
2023-04-06T09:48:29.926Z,46.10
2023-04-06T09:51:01.962Z,44.60
2023-04-06T09:53:33.549Z,45.30
2023-04-06T09:56:05.521Z,46.40
2023-04-06T09:58:39.376Z,44.80
2023-04-06T10:01:12.049Z,44.20
2023-04-06T10:03:47.702Z,44.50
2023-04-06T10:06:19.628Z,46.00
2023-04-06T10:08:52.189Z,44.10
2023-04-06T10:11:20.737Z,45.10
2023-04-06T10:13:51.007Z,43.20
2023-04-06T10:16:19.650Z,44.20
2023-04-06T10:18:54.130Z,44.30
2023-04-06T10:21:26.734Z,44.70
2023-04-06T10:24:01.044Z,45.50
2023-04-06T10:26:32.365Z,44.10
2023-04-06T10:29:05.872Z,46.70
2023-04-06T10:31:34.534Z,43.70
2023-04-06T10:34:04.587Z,43.30
2023-04-06T10:36:35.936Z,43.80
2023-04-06T10:39:07.376Z,43.20
2023-04-06T10:41:36.603Z,44.20
2023-04-06T10:44:05.182Z,43.80
2023-04-06T10:46:35.235Z,43.20
2023-04-06T10:49:13.636Z,42.70
2023-04-06T10:51:45.011Z,43.40
2023-04-06T10:54:15.607Z,42.90
2023-04-06T10:56:43.771Z,41.40
2023-04-06T10:59:12.089Z,42.00
2023-04-06T11:01:40.323Z,43.40
2023-04-06T11:04:10.842Z,43.90
2023-04-06T11:06:40.511Z,42.60
2023-04-06T11:09:10.861Z,43.30
2023-04-06T11:11:41.896Z,44.10
2023-04-06T11:14:12.332Z,43.70
2023-04-06T11:16:40.537Z,43.00
2023-04-06T11:19:08.944Z,42.60
2023-04-06T11:21:40.301Z,42.40
2023-04-06T11:24:09.996Z,43.90
2023-04-06T11:26:48.129Z,45.60
2023-04-06T11:29:18.124Z,44.10
2023-04-06T11:31:48.482Z,43.40
2023-04-06T11:34:19.715Z,47.00
2023-04-06T11:36:49.361Z,45.70
2023-04-06T11:39:22.151Z,46.90
2023-04-06T11:41:53.040Z,47.40
2023-04-06T11:44:33.541Z,47.50
2023-04-06T11:47:02.992Z,46.00
2023-04-06T11:49:31.595Z,46.70
2023-04-06T11:52:00.826Z,47.80
2023-04-06T11:54:33.326Z,46.70
2023-04-06T11:57:03.462Z,46.50
2023-04-06T11:59:31.676Z,49.10
2023-04-06T12:02:00.307Z,47.00
2023-04-06T12:04:28.609Z,45.80
2023-04-06T12:06:56.800Z,43.50
2023-04-06T12:09:24.977Z,44.00
2023-04-06T12:11:53.411Z,42.30
2023-04-06T12:14:23.671Z,37.80
2023-04-06T12:16:51.959Z,40.50
2023-04-06T12:19:20.149Z,38.50
2023-04-06T12:21:48.310Z,38.20
2023-04-06T12:24:16.551Z,38.60
2023-04-06T12:26:45.561Z,39.70
2023-04-06T12:29:14.329Z,38.70
2023-04-06T12:31:45.585Z,39.30
2023-04-06T12:34:13.878Z,41.30
2023-04-06T12:36:42.241Z,41.20
2023-04-06T12:39:10.670Z,38.20
2023-04-06T12:44:20.705Z,40.60
2023-04-06T12:46:51.296Z,42.80
2023-04-06T12:49:20.209Z,42.90
2023-04-06T12:51:48.421Z,41.30
2023-04-06T12:54:16.639Z,40.70
2023-04-06T12:56:44.955Z,42.40
2023-04-06T12:59:13.140Z,41.40
2023-04-06T13:01:41.375Z,38.50
2023-04-06T13:04:13.092Z,37.80
2023-04-06T13:06:41.319Z,41.20
2023-04-06T13:09:09.495Z,40.00
2023-04-06T13:11:37.678Z,38.60
2023-04-06T13:14:05.906Z,38.10
2023-04-06T13:16:37.531Z,41.40
2023-04-06T13:19:05.823Z,40.30
2023-04-06T13:21:38.908Z,39.20
2023-04-06T13:24:07.387Z,40.40
2023-04-06T13:26:35.553Z,38.80
2023-04-06T13:29:04.084Z,39.70
2023-04-06T13:31:32.585Z,42.00
2023-04-06T13:34:00.898Z,40.50
2023-04-06T13:36:29.081Z,39.40
2023-04-06T13:38:58.698Z,39.80
2023-04-06T13:41:28.444Z,39.60
2023-04-06T13:43:56.657Z,40.50
2023-04-06T13:46:25.287Z,40.80
2023-04-06T13:48:53.641Z,40.60
2023-04-06T13:51:21.837Z,40.10
2023-04-06T13:53:53.569Z,40.00
2023-04-06T13:56:22.965Z,41.40
2023-04-06T13:58:51.073Z,41.50
2023-04-06T14:01:19.227Z,41.90
2023-04-06T14:03:48.802Z,40.50
2023-04-06T14:08:48.382Z,40.20
2023-04-06T14:11:17.218Z,40.90
2023-04-06T14:13:47.395Z,39.90
2023-04-06T14:16:16.311Z,41.50
2023-04-06T14:18:44.416Z,41.10
2023-04-06T14:21:12.414Z,41.00
2023-04-06T14:23:40.528Z,39.70
2023-04-06T14:26:10.182Z,39.80
2023-04-06T14:28:38.258Z,40.20
2023-04-06T14:31:15.768Z,40.10
2023-04-06T14:33:44.466Z,41.60
2023-04-06T14:36:12.942Z,44.50
2023-04-06T14:38:42.028Z,43.10
2023-04-06T14:41:11.666Z,39.40
2023-04-06T14:43:39.902Z,41.60
2023-04-06T14:46:09.517Z,43.20
2023-04-06T14:48:39.028Z,41.70
2023-04-06T14:51:07.621Z,41.60
2023-04-06T14:53:35.976Z,41.40
2023-04-06T14:56:04.078Z,40.20
2023-04-06T14:58:32.449Z,41.00
2023-04-06T15:01:02.086Z,40.70
2023-04-06T15:03:31.326Z,40.00
2023-04-06T15:06:00.977Z,39.40
2023-04-06T15:08:29.121Z,39.40
2023-04-06T15:11:01.525Z,40.20
2023-04-06T15:13:30.670Z,39.80
2023-04-06T15:16:00.540Z,41.80
2023-04-06T15:18:30.063Z,41.50
2023-04-06T15:20:58.260Z,42.10
2023-04-06T15:23:30.772Z,43.80
2023-04-06T15:25:59.257Z,42.90
2023-04-06T15:28:27.398Z,43.50
2023-04-06T15:30:56.370Z,43.20
2023-04-06T15:33:24.487Z,44.00
2023-04-06T15:35:52.675Z,45.00
2023-04-06T15:38:21.921Z,45.40
2023-04-06T15:40:51.634Z,44.30
2023-04-06T15:43:19.727Z,44.40
2023-04-06T15:45:47.899Z,43.20
2023-04-06T15:48:16.002Z,45.20
2023-04-06T15:50:44.052Z,46.30
2023-04-06T15:53:12.753Z,47.40
2023-04-06T15:55:40.825Z,46.50
2023-04-06T15:58:10.280Z,47.50
2023-04-06T16:00:39.013Z,48.30
2023-04-06T16:03:07.338Z,47.30
2023-04-06T16:05:44.117Z,46.70
2023-04-06T16:08:22.255Z,46.70
2023-04-06T16:10:51.225Z,47.30
2023-04-06T16:13:21.537Z,47.30
2023-04-06T16:15:51.270Z,47.10
2023-04-06T16:18:19.542Z,49.00
2023-04-06T16:20:47.569Z,47.00
2023-04-06T16:23:15.669Z,49.60
2023-04-06T16:25:43.959Z,49.20
2023-04-06T16:28:12.017Z,49.60
2023-04-06T16:30:43.643Z,50.50
2023-04-06T16:33:14.027Z,51.80
2023-04-06T16:35:45.398Z,50.70
2023-04-06T16:38:13.614Z,52.00
2023-04-06T16:40:41.700Z,51.60
2023-04-06T16:43:10.796Z,50.90
2023-04-06T16:45:39.055Z,50.70
2023-04-06T16:48:08.801Z,52.20
2023-04-06T16:50:37.616Z,50.90
2023-04-06T16:53:05.670Z,52.80
2023-04-06T16:55:33.757Z,53.80
2023-04-06T16:58:02.325Z,55.00
2023-04-06T17:00:30.701Z,52.40
2023-04-06T17:02:58.894Z,53.90
2023-04-06T17:05:28.573Z,55.30
2023-04-06T17:07:56.583Z,55.20
2023-04-06T17:10:33.313Z,54.60
2023-04-06T17:13:02.562Z,54.50
2023-04-06T17:15:31.779Z,54.60
2023-04-06T17:18:00.277Z,54.60
2023-04-06T17:20:30.007Z,56.30
2023-04-06T17:22:58.084Z,56.30
2023-04-06T17:25:26.189Z,55.20
2023-04-06T17:27:54.250Z,55.70
2023-04-06T17:30:22.571Z,57.60
2023-04-06T17:32:50.740Z,57.20
2023-04-06T17:35:18.943Z,57.30
2023-04-06T17:37:48.421Z,58.30
2023-04-06T17:40:16.506Z,59.00
2023-04-06T17:42:44.623Z,60.60
2023-04-06T17:45:13.096Z,58.90
2023-04-06T17:47:41.288Z,59.50
2023-04-06T17:50:09.725Z,59.50
2023-04-06T17:52:38.167Z,60.10
2023-04-06T17:55:08.407Z,59.80
2023-04-06T17:57:39.931Z,60.70
2023-04-06T18:00:11.199Z,60.60
2023-04-06T18:02:39.462Z,59.20
2023-04-06T18:05:08.196Z,59.50
2023-04-06T18:07:36.874Z,61.10
2023-04-06T18:10:05.400Z,60.90
2023-04-06T18:12:35.477Z,60.70
2023-04-06T18:15:03.608Z,61.50
2023-04-06T18:17:31.811Z,62.30
2023-04-06T18:19:59.851Z,61.70
2023-04-06T18:22:28.503Z,62.30
2023-04-06T18:24:56.617Z,62.50
2023-04-06T18:27:25.415Z,62.70
2023-04-06T18:29:55.190Z,62.20
2023-04-06T18:32:23.334Z,63.10
2023-04-06T18:34:52.145Z,64.40
2023-04-06T18:37:20.339Z,65.60
2023-04-06T18:39:48.384Z,63.10
2023-04-06T18:42:18.103Z,62.00
2023-04-06T18:44:46.214Z,61.70
2023-04-06T18:47:15.856Z,61.30
2023-04-06T18:49:43.917Z,62.30
2023-04-06T18:52:11.989Z,61.50
2023-04-06T18:54:40.127Z,62.20
2023-04-06T18:57:08.229Z,63.00
2023-04-06T18:59:36.539Z,63.40
2023-04-06T19:02:04.656Z,63.40
2023-04-06T19:04:34.414Z,63.50
2023-04-06T19:07:02.930Z,63.00
2023-04-06T19:09:30.983Z,63.60
2023-04-06T19:11:59.089Z,63.50
2023-04-06T19:14:27.373Z,64.30
2023-04-06T19:16:55.597Z,66.00
2023-04-06T19:19:23.887Z,65.00
2023-04-06T19:21:53.656Z,65.40
2023-04-06T19:24:21.908Z,65.90
2023-04-06T19:26:50.070Z,65.60
2023-04-06T19:29:18.181Z,66.30
2023-04-06T19:31:46.726Z,66.60
2023-04-06T19:34:17.730Z,66.00
2023-04-06T19:36:46.004Z,66.40
2023-04-06T19:39:16.987Z,67.20
2023-04-06T19:41:45.581Z,67.40
2023-04-06T19:44:13.791Z,67.40
2023-04-06T19:46:42.571Z,67.60
2023-04-06T19:49:10.950Z,68.20
2023-04-06T19:51:39.342Z,68.30
2023-04-06T19:54:08.238Z,68.80
2023-04-06T19:56:37.869Z,69.00
2023-04-06T19:59:05.963Z,68.90
2023-04-06T20:01:34.148Z,70.30
2023-04-06T20:04:02.423Z,69.60
2023-04-06T20:06:31.650Z,70.20
2023-04-06T20:08:59.840Z,70.60
2023-04-06T20:11:28.297Z,70.00
2023-04-06T20:13:57.829Z,71.00
2023-04-06T20:16:25.994Z,71.00
2023-04-06T20:18:54.116Z,71.40
2023-04-06T20:21:22.241Z,71.80
2023-04-06T20:23:50.445Z,72.30
2023-04-06T20:26:18.774Z,71.80
2023-04-06T20:28:46.999Z,73.00
2023-04-06T20:31:16.795Z,72.40
2023-04-06T20:33:45.014Z,72.00
2023-04-06T20:36:13.536Z,72.10
2023-04-06T20:38:41.674Z,72.40
2023-04-06T20:41:10.289Z,72.40
2023-04-06T20:43:38.411Z,72.50
2023-04-06T20:46:07.575Z,73.00
2023-04-06T20:48:38.104Z,73.10
2023-04-06T20:51:06.641Z,73.40
2023-04-06T20:53:34.797Z,73.60
2023-04-06T20:56:03.906Z,73.20
2023-04-06T20:58:31.892Z,73.00
2023-04-06T21:00:59.949Z,73.90
2023-04-06T21:03:28.293Z,73.60
2023-04-06T21:05:59.913Z,73.40
2023-04-06T21:08:28.103Z,73.10
2023-04-06T21:10:56.118Z,74.10
2023-04-06T21:13:24.179Z,74.30
2023-04-06T21:15:52.563Z,74.50
2023-04-06T21:18:21.624Z,74.80
2023-04-06T21:20:50.032Z,77.00
2023-04-06T21:23:19.459Z,76.60
2023-04-06T21:25:47.545Z,76.60
2023-04-06T21:28:15.658Z,77.00
2023-04-06T21:30:43.704Z,76.60
2023-04-06T21:33:11.825Z,76.60
2023-04-06T21:35:40.534Z,76.50
2023-04-06T21:38:08.917Z,76.90
2023-04-06T21:40:39.134Z,77.20
2023-04-06T21:43:07.247Z,77.60
2023-04-06T21:45:35.895Z,78.40
2023-04-06T21:48:04.004Z,78.60
2023-04-06T21:50:32.380Z,78.70
2023-04-06T21:53:00.662Z,78.80
2023-04-06T21:55:28.790Z,79.20
2023-04-06T21:57:58.450Z,79.60
2023-04-06T22:00:26.777Z,80.00
2023-04-06T22:02:54.975Z,80.20
2023-04-06T22:05:23.368Z,80.70
2023-04-06T22:07:52.194Z,80.90
2023-04-06T22:10:20.503Z,81.30
2023-04-06T22:12:50.656Z,81.70
2023-04-06T22:15:20.333Z,81.90
2023-04-06T22:17:48.509Z,82.90
2023-04-06T22:20:16.863Z,83.30
2023-04-06T22:22:44.994Z,83.70
2023-04-06T22:25:13.149Z,84.30
2023-04-06T22:27:41.178Z,84.50
2023-04-06T22:30:10.536Z,84.70
2023-04-06T22:32:40.039Z,85.50
2023-04-06T22:35:09.594Z,86.60
2023-04-06T22:37:37.740Z,87.30
2023-04-06T22:40:06.485Z,88.50
2023-04-06T22:42:34.541Z,88.90
2023-04-06T22:45:02.651Z,90.30
2023-04-06T22:47:31.477Z,90.60
2023-04-06T22:50:01.160Z,90.70
2023-04-06T22:52:29.195Z,91.50
2023-04-06T22:54:57.366Z,91.70
2023-04-06T22:57:25.664Z,92.20
2023-04-06T22:59:53.809Z,92.10
2023-04-06T23:02:22.059Z,92.70
2023-04-06T23:04:50.087Z,93.20
2023-04-06T23:07:19.552Z,93.40
2023-04-06T23:09:47.565Z,93.90
2023-04-06T23:12:15.657Z,94.00
2023-04-06T23:14:43.731Z,94.30
2023-04-06T23:17:12.153Z,94.50
2023-04-06T23:19:40.261Z,94.80
2023-04-06T23:22:08.342Z,95.00
2023-04-06T23:24:37.957Z,94.60
2023-04-06T23:27:06.029Z,94.70
2023-04-06T23:29:34.058Z,95.20
2023-04-06T23:32:02.317Z,95.40
2023-04-06T23:34:30.374Z,95.60
2023-04-06T23:37:01.279Z,95.90
2023-04-06T23:39:29.500Z,96.30
2023-04-06T23:41:58.977Z,96.00
2023-04-06T23:44:30.780Z,96.30
2023-04-06T23:46:58.824Z,96.10
2023-04-06T23:49:27.191Z,96.00
2023-04-06T23:51:55.219Z,96.30
2023-04-06T23:54:23.224Z,96.80
2023-04-06T23:56:52.008Z,97.10
2023-04-06T23:59:21.440Z,97.10
